Time;durP1;ratioP1;P1;durP2;ratioP2;P2;SDS_P1;SDS_P2;PMS_P1;PMS_P2;Temp;Humidity;BMP_temperature;BMP_pressure;BME280_temperature;BME280_humidity;BME280_pressure;Samples;Min_cycle;Max_cycle;Signal;HPM_P1;HPM_P2
2023/04/22 00:01:02;;;;;;;30.02;24.85;;;7.10;88.80;;;;;;5008382;28;20517;-73
2023/04/22 00:03:28;;;;;;;27.60;23.30;;;7.10;88.80;;;;;;5000046;28;20029;-74
2023/04/22 00:05:54;;;;;;;28.63;23.67;;;7.10;88.80;;;;;;5007366;28;20368;-75
2023/04/22 00:08:20;;;;;;;29.13;23.38;;;7.10;88.80;;;;;;5010021;28;20049;-75
2023/04/22 00:10:46;;;;;;;35.30;27.05;;;7.10;88.80;;;;;;5007051;28;20553;-77
2023/04/22 00:13:11;;;;;;;34.92;26.67;;;7.10;88.80;;;;;;5019102;28;20492;-76
2023/04/22 00:15:37;;;;;;;40.20;29.60;;;7.10;88.80;;;;;;5022504;28;20037;-78
2023/04/22 00:18:03;;;;;;;41.88;30.42;;;7.10;88.80;;;;;;5016701;28;20030;-74
2023/04/22 00:20:31;;;;;;;82.53;46.25;;;7.10;88.70;;;;;;5009460;28;20045;-77
2023/04/22 00:22:56;;;;;;;95.72;51.30;;;7.10;88.70;;;;;;5015814;28;20521;-75
2023/04/22 00:25:22;;;;;;;72.18;43.92;;;7.10;88.70;;;;;;5004315;28;20030;-76
2023/04/22 00:27:48;;;;;;;59.13;38.35;;;7.10;88.70;;;;;;5008042;28;20038;-76
2023/04/22 00:30:14;;;;;;;58.42;39.42;;;7.10;88.70;;;;;;5001630;28;20026;-77
2023/04/22 00:32:39;;;;;;;60.30;38.20;;;7.10;88.70;;;;;;5000261;28;20031;-76
2023/04/22 00:35:06;;;;;;;58.45;37.92;;;7.10;88.60;;;;;;5002182;28;20046;-77
2023/04/22 00:37:31;;;;;;;58.53;38.55;;;7.10;88.70;;;;;;5013587;28;20164;-76
2023/04/22 00:39:57;;;;;;;51.08;35.45;;;7.10;88.60;;;;;;5014042;28;20113;-76
2023/04/22 00:42:23;;;;;;;50.08;34.55;;;7.10;88.60;;;;;;5011234;28;20025;-76
2023/04/22 00:44:50;;;;;;;51.03;35.42;;;7.10;88.60;;;;;;5004665;28;20022;-76
2023/04/22 00:47:16;;;;;;;51.80;36.00;;;7.10;88.60;;;;;;5009486;28;20049;-77
2023/04/22 00:49:42;;;;;;;43.50;31.55;;;7.00;88.50;;;;;;5010164;28;20080;-75
2023/04/22 00:52:08;;;;;;;49.17;34.53;;;7.10;88.60;;;;;;5001682;28;20041;-76
2023/04/22 00:54:35;;;;;;;43.22;31.88;;;7.10;88.70;;;;;;5003296;28;21076;-77
2023/04/22 00:57:02;;;;;;;46.50;33.08;;;7.10;88.70;;;;;;5005574;28;20056;-77
2023/04/22 00:59:28;;;;;;;44.30;32.22;;;7.10;88.70;;;;;;5002223;28;20029;-74
2023/04/22 01:01:55;;;;;;;45.55;32.10;;;7.10;88.60;;;;;;5009578;28;20373;-77
2023/04/22 01:04:22;;;;;;;40.13;29.55;;;7.10;88.60;;;;;;4998663;28;20028;-77
2023/04/22 01:06:50;;;;;;;41.40;31.52;;;7.10;88.60;;;;;;5008329;28;20033;-76
2023/04/22 01:09:17;;;;;;;41.25;30.65;;;7.10;88.60;;;;;;5009281;28;20026;-75
2023/04/22 01:11:43;;;;;;;38.45;29.73;;;7.10;88.60;;;;;;5005408;28;20326;-78
2023/04/22 01:14:09;;;;;;;41.97;32.08;;;7.10;88.70;;;;;;5008090;28;20097;-75
2023/04/22 01:16:37;;;;;;;44.25;31.90;;;7.10;88.60;;;;;;5007326;28;20125;-76
2023/04/22 01:19:05;;;;;;;44.72;33.92;;;7.10;88.70;;;;;;5007617;28;20077;-75
2023/04/22 01:21:33;;;;;;;41.50;32.30;;;7.00;88.70;;;;;;5004493;28;20034;-76
2023/04/22 01:24:02;;;;;;;41.95;32.95;;;7.00;88.80;;;;;;5010854;28;20026;-76
2023/04/22 01:26:28;;;;;;;42.10;32.90;;;7.00;88.90;;;;;;5006208;28;20096;-75
2023/04/22 01:28:53;;;;;;;45.03;33.17;;;7.00;89.00;;;;;;4994944;28;20042;-75
2023/04/22 01:31:19;;;;;;;43.67;33.28;;;7.10;89.00;;;;;;5008677;28;20577;-76
2023/04/22 01:33:47;;;;;;;45.75;34.50;;;7.10;89.10;;;;;;5001036;28;20347;-75
2023/04/22 01:36:13;;;;;;;45.85;33.55;;;7.10;89.10;;;;;;5008363;28;20068;-74
2023/04/22 01:38:39;;;;;;;45.17;34.47;;;7.10;89.10;;;;;;5006875;28;20100;-75
2023/04/22 01:41:05;;;;;;;49.20;36.35;;;7.10;89.10;;;;;;5005133;28;20030;-74
2023/04/22 01:43:31;;;;;;;44.95;33.20;;;7.10;89.10;;;;;;5001351;28;20080;-75
2023/04/22 01:45:59;;;;;;;39.95;30.85;;;7.10;89.20;;;;;;5015532;28;20116;-74
2023/04/22 01:48:24;;;;;;;42.00;32.80;;;7.10;89.20;;;;;;5003951;28;20113;-76
2023/04/22 01:50:50;;;;;;;45.97;34.60;;;7.10;89.20;;;;;;5012921;28;20688;-75
2023/04/22 01:53:16;;;;;;;42.70;33.60;;;7.10;88.90;;;;;;5009734;28;20026;-77
2023/04/22 01:55:42;;;;;;;43.83;33.25;;;7.10;88.80;;;;;;5011616;28;20096;-73
2023/04/22 01:58:08;;;;;;;41.30;32.55;;;7.10;88.80;;;;;;5006838;28;20021;-75
2023/04/22 02:00:33;;;;;;;45.67;35.50;;;7.10;88.80;;;;;;5006728;28;20374;-74
2023/04/22 02:02:59;;;;;;;48.03;34.80;;;7.10;88.80;;;;;;5001761;28;20102;-75
2023/04/22 02:05:26;;;;;;;42.20;33.30;;;7.10;88.80;;;;;;5004936;28;20255;-75
2023/04/22 02:07:53;;;;;;;40.05;31.38;;;7.10;88.80;;;;;;5007021;28;20053;-75
2023/04/22 02:10:19;;;;;;;43.13;33.05;;;7.00;89.00;;;;;;5007711;28;20157;-76
2023/04/22 02:12:45;;;;;;;42.30;31.00;;;6.90;88.90;;;;;;5007426;28;20369;-75
2023/04/22 02:15:11;;;;;;;39.03;30.02;;;6.90;89.10;;;;;;5008267;28;20042;-75
2023/04/22 02:17:37;;;;;;;43.05;33.30;;;6.70;89.30;;;;;;5002751;28;20044;-78
2023/04/22 02:20:04;;;;;;;42.53;32.10;;;6.70;89.50;;;;;;5009730;28;20033;-73
2023/04/22 02:22:31;;;;;;;43.15;33.55;;;6.80;89.50;;;;;;5007593;28;20025;-74
2023/04/22 02:24:57;;;;;;;44.63;33.83;;;6.80;89.50;;;;;;5009383;28;20030;-74
2023/04/22 02:27:22;;;;;;;46.92;36.22;;;6.70;89.60;;;;;;5014701;28;20035;-76
2023/04/22 02:29:48;;;;;;;45.03;34.13;;;6.60;89.70;;;;;;5007129;28;20026;-75
2023/04/22 02:32:16;;;;;;;45.60;33.92;;;6.60;90.00;;;;;;5002346;28;20030;-76
2023/04/22 02:34:42;;;;;;;43.33;32.63;;;6.60;90.10;;;;;;5013631;28;20129;-76
2023/04/22 02:37:07;;;;;;;43.58;32.72;;;6.60;90.20;;;;;;5002146;28;20153;-80
2023/04/22 02:39:33;;;;;;;44.50;33.63;;;6.60;90.30;;;;;;5009506;28;20121;-76
2023/04/22 02:42:00;;;;;;;45.90;33.83;;;6.70;90.30;;;;;;5013331;28;20037;-76
2023/04/22 02:44:25;;;;;;;45.22;35.30;;;6.60;90.30;;;;;;5007718;28;20484;-75
2023/04/22 02:46:51;;;;;;;44.15;34.00;;;6.60;90.40;;;;;;5003422;28;20133;-76
2023/04/22 02:49:17;;;;;;;43.00;33.95;;;6.60;90.40;;;;;;5013888;28;20076;-76
2023/04/22 02:51:42;;;;;;;43.30;34.35;;;6.70;90.50;;;;;;5011155;28;20026;-74
2023/04/22 02:54:08;;;;;;;43.70;32.67;;;6.70;90.40;;;;;;5011004;28;20116;-76
2023/04/22 02:56:35;;;;;;;49.58;34.47;;;6.70;90.30;;;;;;5003390;28;20030;-76
2023/04/22 02:59:00;;;;;;;48.88;34.95;;;6.70;90.20;;;;;;5008123;28;20017;-76
2023/04/22 03:01:26;;;;;;;57.05;36.67;;;6.60;90.20;;;;;;5012890;28;20428;-75
2023/04/22 03:03:53;;;;;;;49.42;36.00;;;6.60;90.20;;;;;;5010859;28;20104;-78
2023/04/22 03:06:18;;;;;;;49.15;36.70;;;6.60;90.40;;;;;;5012461;28;20025;-75
2023/04/22 03:08:44;;;;;;;47.72;34.38;;;6.60;90.40;;;;;;5017212;28;20022;-75
2023/04/22 03:11:10;;;;;;;50.60;36.40;;;6.50;90.50;;;;;;5012436;28;20079;-76
2023/04/22 03:13:35;;;;;;;51.80;35.42;;;6.50;90.50;;;;;;5009975;28;20025;-76
2023/04/22 03:16:01;;;;;;;53.30;36.58;;;6.60;90.60;;;;;;5012277;28;20029;-76
2023/04/22 03:18:26;;;;;;;81.30;35.95;;;6.60;90.50;;;;;;5004192;28;20022;-75
2023/04/22 03:20:52;;;;;;;45.20;32.70;;;6.60;90.50;;;;;;5009610;28;20113;-76
2023/04/22 03:23:18;;;;;;;44.45;34.00;;;6.60;90.60;;;;;;5005110;28;20473;-75
2023/04/22 03:25:43;;;;;;;38.65;29.85;;;6.60;90.60;;;;;;5015071;28;20105;-78
2023/04/22 03:28:09;;;;;;;40.72;33.13;;;6.60;90.60;;;;;;5009779;28;20132;-74
2023/04/22 03:30:35;;;;;;;39.38;30.00;;;6.60;90.70;;;;;;5017892;28;20014;-79
2023/04/22 03:33:00;;;;;;;37.65;30.27;;;6.60;90.70;;;;;;5006859;28;20021;-76
2023/04/22 03:35:26;;;;;;;36.50;29.92;;;6.60;90.70;;;;;;5006895;28;20230;-74
2023/04/22 03:37:52;;;;;;;35.65;30.05;;;6.60;90.60;;;;;;5011380;28;20129;-76
2023/04/22 03:40:18;;;;;;;39.13;29.15;;;6.60;90.40;;;;;;5007496;28;20064;-79
2023/04/22 03:42:44;;;;;;;37.50;29.05;;;6.60;90.20;;;;;;5008630;28;20081;-76
2023/04/22 03:45:10;;;;;;;37.20;29.52;;;6.60;90.10;;;;;;5006817;28;20381;-76
2023/04/22 03:47:35;;;;;;;36.20;30.50;;;6.60;90.10;;;;;;5018581;28;20038;-75
2023/04/22 03:50:01;;;;;;;35.42;30.25;;;6.60;90.10;;;;;;5021732;28;20509;-76
2023/04/22 03:52:26;;;;;;;37.47;31.27;;;6.50;90.10;;;;;;5003571;28;20040;-77
2023/04/22 03:54:52;;;;;;;35.20;30.48;;;6.50;90.40;;;;;;5005379;28;20037;-74
2023/04/22 03:57:18;;;;;;;37.67;31.45;;;6.50;90.40;;;;;;5023173;28;20561;-75
2023/04/22 03:59:43;;;;;;;40.00;32.10;;;6.50;90.50;;;;;;5011880;28;20049;-75
2023/04/22 04:02:09;;;;;;;41.42;33.72;;;6.40;90.60;;;;;;5012927;28;20091;-74
2023/04/22 04:04:35;;;;;;;42.28;33.15;;;6.40;90.70;;;;;;5014111;28;20101;-76
2023/04/22 04:07:01;;;;;;;42.63;34.30;;;6.40;91.00;;;;;;5023653;28;20121;-76
2023/04/22 04:09:26;;;;;;;42.83;34.78;;;6.40;91.00;;;;;;5015282;28;20432;-76
2023/04/22 04:11:52;;;;;;;40.45;33.35;;;6.50;91.10;;;;;;5016300;28;20026;-77
2023/04/22 04:14:18;;;;;;;47.05;34.95;;;6.50;91.10;;;;;;5019250;28;20029;-78
2023/04/22 04:16:44;;;;;;;49.17;35.78;;;6.50;91.10;;;;;;5016326;28;20355;-77
2023/04/22 04:19:09;;;;;;;42.53;32.75;;;6.60;91.10;;;;;;5019325;28;20060;-76
2023/04/22 04:21:36;;;;;;;46.70;35.42;;;6.60;91.10;;;;;;5018422;28;20458;-74
2023/04/22 04:24:05;;;;;;;42.55;32.65;;;6.60;91.10;;;;;;5015492;28;20112;-75
2023/04/22 04:26:32;;;;;;;46.47;34.58;;;6.60;91.20;;;;;;5005942;28;20030;-77
2023/04/22 04:29:00;;;;;;;47.85;34.55;;;6.70;91.20;;;;;;5008323;28;20025;-79
2023/04/22 04:31:26;;;;;;;46.50;34.22;;;6.70;91.20;;;;;;5010071;28;20366;-77
2023/04/22 04:33:52;;;;;;;48.63;35.17;;;6.70;91.10;;;;;;5019422;28;20021;-73
2023/04/22 04:36:18;;;;;;;47.03;34.63;;;6.80;91.10;;;;;;5010500;28;20045;-76
2023/04/22 04:38:45;;;;;;;43.22;33.10;;;6.80;91.00;;;;;;5007176;28;20211;-76
2023/04/22 04:41:11;;;;;;;43.35;33.47;;;6.70;90.90;;;;;;5005487;28;20126;-77
2023/04/22 04:43:37;;;;;;;41.53;33.70;;;6.80;90.70;;;;;;5008201;28;20429;-79
2023/04/22 04:46:03;;;;;;;42.80;33.30;;;6.70;90.60;;;;;;5037600;28;20047;-77
2023/04/22 04:48:29;;;;;;;45.92;35.53;;;6.80;90.60;;;;;;5028687;28;20048;-77
2023/04/22 04:50:55;;;;;;;43.33;32.38;;;6.70;90.60;;;;;;5030186;28;20017;-79
2023/04/22 04:53:21;;;;;;;40.33;32.92;;;6.70;90.70;;;;;;5014361;28;20549;-76
2023/04/22 04:55:47;;;;;;;41.88;33.30;;;6.70;90.60;;;;;;5013658;28;20222;-76
2023/04/22 04:58:13;;;;;;;43.25;34.75;;;6.70;90.70;;;;;;5007791;28;20508;-76
2023/04/22 05:00:38;;;;;;;41.67;34.28;;;6.70;90.70;;;;;;5010814;28;20412;-76
2023/04/22 05:03:04;;;;;;;41.47;32.63;;;6.70;90.80;;;;;;5010095;28;20500;-77
2023/04/22 05:05:30;;;;;;;39.88;33.08;;;6.70;90.80;;;;;;5008421;28;20391;-77
2023/04/22 05:07:56;;;;;;;36.97;30.05;;;6.80;90.90;;;;;;5022213;28;20045;-76
2023/04/22 05:10:22;;;;;;;41.53;34.22;;;6.90;90.90;;;;;;5010358;28;20034;-78
2023/04/22 05:12:47;;;;;;;40.80;33.28;;;6.90;90.80;;;;;;5021697;28;20053;-76
2023/04/22 05:15:14;;;;;;;40.60;34.25;;;6.90;90.80;;;;;;5011283;28;20025;-76
2023/04/22 05:17:39;;;;;;;43.28;34.78;;;6.90;90.80;;;;;;5014034;28;20042;-75
2023/04/22 05:20:06;;;;;;;38.60;33.22;;;6.90;90.80;;;;;;5006176;28;20036;-78
2023/04/22 05:22:31;;;;;;;41.67;32.92;;;7.00;90.80;;;;;;4994253;28;20494;-76
2023/04/22 05:24:57;;;;;;;38.95;32.47;;;7.00;90.90;;;;;;5011371;28;20030;-77
2023/04/22 05:27:23;;;;;;;38.22;33.65;;;7.10;90.80;;;;;;5003957;28;20058;-76
2023/04/22 05:29:49;;;;;;;38.90;33.33;;;7.10;90.70;;;;;;5003553;28;20026;-76
2023/04/22 05:32:15;;;;;;;39.88;33.67;;;7.10;90.60;;;;;;5007686;28;20108;-79
2023/04/22 05:34:41;;;;;;;37.58;32.35;;;7.20;90.80;;;;;;5000702;28;20022;-76
2023/04/22 05:37:07;;;;;;;39.05;32.83;;;7.30;90.90;;;;;;5009757;28;20105;-77
2023/04/22 05:39:33;;;;;;;39.15;34.05;;;7.50;90.90;;;;;;5008488;28;20025;-76
2023/04/22 05:41:58;;;;;;;38.80;34.08;;;7.50;90.60;;;;;;5012938;28;20527;-77
2023/04/22 05:44:24;;;;;;;39.00;33.65;;;7.40;90.30;;;;;;5010417;28;20400;-77
2023/04/22 05:46:49;;;;;;;37.05;32.90;;;7.50;90.50;;;;;;5012677;28;20029;-77
2023/04/22 05:49:15;;;;;;;40.63;35.33;;;7.50;90.20;;;;;;5004725;28;20100;-74
2023/04/22 05:51:41;;;;;;;41.58;35.20;;;7.40;89.90;;;;;;4998128;28;20438;-76
2023/04/22 05:54:07;;;;;;;38.30;32.10;;;7.50;90.10;;;;;;5014809;28;20222;-80
2023/04/22 05:56:33;;;;;;;36.20;31.70;;;7.50;90.20;;;;;;5009103;28;20483;-77
2023/04/22 05:58:58;;;;;;;41.30;34.60;;;7.60;90.20;;;;;;5013862;28;20481;-77
2023/04/22 06:01:24;;;;;;;37.80;33.67;;;7.70;90.20;;;;;;5011780;28;20350;-77
2023/04/22 06:03:50;;;;;;;39.20;33.63;;;7.80;90.30;;;;;;5006728;28;20352;-77
2023/04/22 06:06:16;;;;;;;41.42;36.45;;;7.80;90.10;;;;;;5012040;28;20397;-78
2023/04/22 06:08:41;;;;;;;38.78;32.80;;;7.90;90.20;;;;;;5012708;28;20048;-77
2023/04/22 06:11:07;;;;;;;36.85;31.65;;;8.10;90.10;;;;;;5008735;28;20030;-77
2023/04/22 06:13:33;;;;;;;37.60;33.35;;;8.10;89.80;;;;;;5012186;28;20035;-79
2023/04/22 06:16:00;;;;;;;37.83;32.38;;;8.20;89.60;;;;;;5024091;28;20061;-77
2023/04/22 06:18:25;;;;;;;39.95;32.28;;;8.20;89.60;;;;;;5022721;28;20050;-77
2023/04/22 06:20:51;;;;;;;38.90;31.73;;;8.30;89.50;;;;;;5017440;28;20452;-77
2023/04/22 06:23:17;;;;;;;37.17;31.75;;;8.30;89.20;;;;;;5022615;28;20014;-76
2023/04/22 06:25:43;;;;;;;36.17;31.25;;;8.10;89.10;;;;;;5017860;28;20534;-77
2023/04/22 06:28:08;;;;;;;40.63;32.72;;;8.10;89.40;;;;;;5008521;28;20022;-76
2023/04/22 06:30:34;;;;;;;39.33;33.08;;;8.10;89.30;;;;;;5009779;28;20450;-76
2023/04/22 06:33:00;;;;;;;37.97;32.50;;;8.20;89.50;;;;;;5005411;28;20022;-77
2023/04/22 06:35:26;;;;;;;38.72;33.10;;;8.40;89.70;;;;;;5011267;28;20025;-76
2023/04/22 06:37:51;;;;;;;37.92;32.42;;;8.50;89.50;;;;;;5003520;28;20046;-76
2023/04/22 06:40:17;;;;;;;41.28;36.47;;;8.60;89.60;;;;;;5010019;28;20336;-77
2023/04/22 06:42:43;;;;;;;40.75;34.03;;;8.60;88.90;;;;;;5010164;28;20053;-77
2023/04/22 06:45:11;;;;;;;43.60;36.42;;;8.60;88.80;;;;;;5006715;28;20030;-77
2023/04/22 06:47:38;;;;;;;40.53;33.72;;;8.60;88.80;;;;;;5016712;28;20483;-77
2023/04/22 06:50:08;;;;;;;42.65;36.17;;;8.60;88.90;;;;;;5015421;28;20072;-77
2023/04/22 06:52:34;;;;;;;44.58;39.00;;;8.60;88.80;;;;;;5015869;28;20046;-75
2023/04/22 06:55:02;;;;;;;40.65;36.10;;;8.60;88.70;;;;;;5012862;28;20585;-77
2023/04/22 06:57:28;;;;;;;42.28;35.90;;;8.70;89.10;;;;;;5015528;28;20066;-77
2023/04/22 06:59:54;;;;;;;41.78;36.20;;;8.80;89.00;;;;;;5008733;28;20025;-77
2023/04/22 07:02:20;;;;;;;44.33;36.78;;;8.90;89.00;;;;;;5009243;28;20026;-77
2023/04/22 07:04:46;;;;;;;47.05;38.35;;;9.00;88.90;;;;;;5017745;28;20037;-76
2023/04/22 07:07:12;;;;;;;43.92;37.10;;;9.00;88.50;;;;;;5016499;28;20037;-77
2023/04/22 07:09:38;;;;;;;42.15;33.88;;;8.80;88.40;;;;;;5008950;28;20034;-77
2023/04/22 07:12:04;;;;;;;40.97;34.42;;;8.70;88.50;;;;;;5009452;28;20033;-77
2023/04/22 07:14:31;;;;;;;47.03;38.42;;;8.70;88.80;;;;;;5010999;28;20017;-77
2023/04/22 07:16:57;;;;;;;46.72;35.75;;;8.80;89.10;;;;;;5012103;28;20381;-77
2023/04/22 07:19:23;;;;;;;44.35;36.45;;;8.90;89.00;;;;;;5004005;28;20357;-76
2023/04/22 07:21:49;;;;;;;44.70;36.33;;;8.80;88.90;;;;;;5009977;28;20054;-79
2023/04/22 07:24:14;;;;;;;46.35;36.75;;;8.90;89.00;;;;;;5021292;28;20085;-76
2023/04/22 07:26:42;;;;;;;51.20;39.65;;;8.90;89.00;;;;;;5017939;28;20226;-76
2023/04/22 07:29:07;;;;;;;53.50;41.22;;;9.00;89.30;;;;;;5019265;28;20465;-75
2023/04/22 07:31:36;;;;;;;51.08;38.45;;;9.10;89.50;;;;;;5023155;28;20022;-79
2023/04/22 07:34:02;;;;;;;49.25;38.28;;;9.30;89.10;;;;;;5008789;28;20038;-77
2023/04/22 07:36:28;;;;;;;45.55;36.08;;;9.30;88.70;;;;;;5014241;28;20038;-77
2023/04/22 07:38:54;;;;;;;48.80;37.05;;;9.40;88.40;;;;;;5005321;28;20410;-78
2023/04/22 07:41:19;;;;;;;45.80;35.15;;;9.50;88.30;;;;;;5012214;28;20675;-78
2023/04/22 07:43:45;;;;;;;47.10;36.63;;;9.70;88.10;;;;;;5001598;28;20450;-78
2023/04/22 07:46:11;;;;;;;45.72;34.60;;;9.80;88.00;;;;;;5012395;28;20037;-77
2023/04/22 07:48:36;;;;;;;47.28;35.97;;;10.10;88.00;;;;;;5007803;28;20058;-79
2023/04/22 07:51:02;;;;;;;45.47;37.05;;;10.40;88.10;;;;;;5010716;28;20026;-78
2023/04/22 07:53:28;;;;;;;42.40;34.17;;;10.60;87.40;;;;;;5010961;28;20108;-78
2023/04/22 07:55:55;;;;;;;40.45;34.22;;;10.60;86.30;;;;;;5011599;28;20022;-78
2023/04/22 07:58:20;;;;;;;36.33;31.05;;;10.80;86.30;;;;;;5011204;28;20029;-78
2023/04/22 08:00:46;;;;;;;36.42;30.73;;;10.90;85.50;;;;;;5002771;28;20421;-77
2023/04/22 08:03:12;;;;;;;36.22;30.50;;;11.00;85.40;;;;;;5008750;28;20083;-78
2023/04/22 08:05:38;;;;;;;37.00;29.23;;;11.30;85.60;;;;;;5013018;28;20473;-77
2023/04/22 08:08:04;;;;;;;33.03;27.52;;;11.60;85.30;;;;;;5023250;28;20025;-79
2023/04/22 08:10:31;;;;;;;31.80;25.92;;;11.80;84.10;;;;;;5010177;28;20018;-78
2023/04/22 08:12:56;;;;;;;30.27;25.65;;;11.80;81.40;;;;;;5007475;28;20030;-78
2023/04/22 08:15:22;;;;;;;28.98;24.52;;;12.00;82.00;;;;;;5005033;28;20086;-77
2023/04/22 08:17:48;;;;;;;28.77;24.83;;;11.90;80.80;;;;;;5012021;28;20060;-77
2023/04/22 08:20:14;;;;;;;31.25;26.92;;;11.80;81.20;;;;;;5020020;28;20124;-76
2023/04/22 08:22:41;;;;;;;35.75;27.83;;;11.60;81.50;;;;;;5009579;28;20079;-76
2023/04/22 08:25:08;;;;;;;35.80;29.30;;;11.50;82.00;;;;;;5015030;28;20029;-77
2023/04/22 08:27:34;;;;;;;40.38;30.42;;;11.30;82.40;;;;;;5015304;28;20033;-77
2023/04/22 08:29:59;;;;;;;37.95;31.67;;;11.10;83.20;;;;;;5021798;28;20029;-77
2023/04/22 08:32:25;;;;;;;40.00;31.33;;;11.00;84.10;;;;;;5019884;28;20026;-77
2023/04/22 08:34:51;;;;;;;39.72;31.80;;;10.90;85.00;;;;;;5027728;28;20059;-78
2023/04/22 08:37:17;;;;;;;37.95;30.25;;;10.90;85.30;;;;;;5016520;28;20030;-78
2023/04/22 08:39:43;;;;;;;39.42;30.90;;;10.90;85.80;;;;;;5024796;28;20018;-79
2023/04/22 08:42:09;;;;;;;34.58;29.35;;;10.90;85.90;;;;;;5017412;28;20087;-76
2023/04/22 08:44:37;;;;;;;36.53;31.27;;;10.90;85.80;;;;;;5011453;28;20021;-77
2023/04/22 08:47:04;;;;;;;36.95;29.50;;;10.90;85.90;;;;;;5008671;28;20099;-78
2023/04/22 08:49:29;;;;;;;39.10;32.17;;;10.90;86.10;;;;;;5006104;28;20083;-77
2023/04/22 08:51:55;;;;;;;37.95;31.13;;;10.90;86.00;;;;;;5004303;28;20378;-77
2023/04/22 08:54:22;;;;;;;37.45;30.90;;;10.90;86.10;;;;;;5008119;28;20037;-77
2023/04/22 08:56:49;;;;;;;37.25;28.83;;;10.80;86.00;;;;;;5012778;28;20069;-78
2023/04/22 08:59:16;;;;;;;35.92;29.90;;;10.90;86.30;;;;;;5010473;28;20069;-78
2023/04/22 09:01:42;;;;;;;37.53;30.90;;;10.80;86.30;;;;;;5005973;28;20434;-77
2023/04/22 09:04:09;;;;;;;36.05;30.17;;;10.70;86.70;;;;;;5009683;28;20312;-77
2023/04/22 09:06:37;;;;;;;47.20;42.10;;;10.70;86.90;;;;;;5010686;28;20029;-77
2023/04/22 09:09:03;;;;;;;39.75;35.28;;;10.70;86.90;;;;;;5011496;28;20493;-79
2023/04/22 09:11:32;;;;;;;43.70;37.40;;;10.70;86.90;;;;;;5003863;28;20633;-79
2023/04/22 09:13:58;;;;;;;43.20;36.38;;;10.80;86.80;;;;;;5008614;28;20065;-78
2023/04/22 09:16:24;;;;;;;39.80;35.45;;;10.70;86.90;;;;;;5014329;28;20417;-78
2023/04/22 09:18:50;;;;;;;43.28;36.25;;;10.60;86.90;;;;;;5008592;28;20491;-77
2023/04/22 09:21:15;;;;;;;42.22;36.42;;;10.60;87.00;;;;;;5005584;28;20037;-77
2023/04/22 09:23:52;;;;;;;42.42;37.03;;;10.60;87.10;;;;;;5004908;28;20025;-78
2023/04/22 09:26:19;;;;;;;38.22;33.47;;;10.60;87.50;;;;;;5008002;28;21376;-76
2023/04/22 09:28:53;;;;;;;36.00;31.75;;;10.60;87.40;;;;;;4996317;28;20030;-77
2023/04/22 09:31:23;;;;;;;40.45;32.20;;;10.60;87.40;;;;;;5005883;28;21758;-77
2023/04/22 09:33:51;;;;;;;37.83;32.28;;;10.60;87.30;;;;;;5003674;28;20022;-77
2023/04/22 09:36:21;;;;;;;39.15;33.42;;;10.60;87.10;;;;;;5004132;28;20304;-78
2023/04/22 09:38:52;;;;;;;40.20;33.67;;;10.70;87.50;;;;;;5005841;28;20032;-78
2023/04/22 09:41:25;;;;;;;38.78;33.30;;;10.70;87.10;;;;;;5006978;28;20039;-77
2023/04/22 09:43:50;;;;;;;36.55;31.85;;;10.70;87.20;;;;;;5011678;28;20077;-79
2023/04/22 09:46:16;;;;;;;37.60;31.73;;;10.80;87.00;;;;;;4997851;28;20045;-77
2023/04/22 09:48:42;;;;;;;33.53;28.13;;;10.90;86.80;;;;;;5006615;28;20033;-77
2023/04/22 09:51:15;;;;;;;33.33;27.20;;;11.10;87.00;;;;;;5007462;28;20044;-78
2023/04/22 09:53:41;;;;;;;32.83;27.05;;;11.10;85.70;;;;;;5018589;28;20432;-78
2023/04/22 09:56:07;;;;;;;33.75;28.55;;;11.30;84.70;;;;;;5004079;28;20129;-76
2023/04/22 09:58:38;;;;;;;35.88;31.65;;;11.40;85.30;;;;;;4999932;28;20373;-77
2023/04/22 10:01:04;;;;;;;40.35;32.75;;;11.40;85.10;;;;;;4998490;28;20033;-77
2023/04/22 10:03:29;;;;;;;40.70;35.13;;;11.30;85.50;;;;;;4998297;28;20021;-78
2023/04/22 10:05:55;;;;;;;40.95;36.28;;;11.30;85.70;;;;;;4999919;28;20022;-77
2023/04/22 10:08:21;;;;;;;39.10;34.78;;;11.30;85.00;;;;;;5003132;28;20030;-76
2023/04/22 10:10:47;;;;;;;46.70;41.75;;;11.30;85.00;;;;;;5007194;28;20118;-77
2023/04/22 10:13:13;;;;;;;43.58;37.92;;;11.30;85.30;;;;;;5013119;28;20460;-76
2023/04/22 10:15:50;;;;;;;37.60;33.50;;;11.20;85.00;;;;;;5008046;28;20026;-77
2023/04/22 10:18:25;;;;;;;41.13;36.65;;;11.30;85.40;;;;;;5012865;28;20037;-78
2023/04/22 10:20:54;;;;;;;38.70;31.75;;;11.40;85.00;;;;;;5008294;28;20030;-78
2023/04/22 10:23:22;;;;;;;33.25;27.80;;;11.30;84.90;;;;;;5007477;28;20108;-77
2023/04/22 10:25:53;;;;;;;30.35;26.58;;;11.30;84.50;;;;;;5006528;28;20474;-79
2023/04/22 10:28:21;;;;;;;29.25;25.15;;;11.30;84.00;;;;;;5016138;28;20017;-74
2023/04/22 10:30:47;;;;;;;29.77;25.30;;;11.30;84.30;;;;;;5012373;28;20514;-76
2023/04/22 10:33:22;;;;;;;32.20;26.20;;;11.10;82.70;;;;;;5011712;28;20156;-76
2023/04/22 10:36:13;;;;;;;29.15;25.40;;;11.10;83.10;;;;;;5004134;28;20022;-74
2023/04/22 10:39:02;;;;;;;30.92;25.42;;;10.90;84.20;;;;;;5000866;28;20319;-79
2023/04/22 10:41:33;;;;;;;30.30;24.83;;;11.10;84.70;;;;;;4996645;28;20527;-78
2023/04/22 10:44:06;;;;;;;30.75;25.92;;;11.20;84.20;;;;;;5008065;28;20014;-77
2023/04/22 10:46:33;;;;;;;30.08;24.40;;;11.30;84.10;;;;;;5003754;28;20057;-76
2023/04/22 10:49:22;;;;;;;30.15;24.88;;;11.30;83.80;;;;;;5004991;28;20053;-75
2023/04/22 10:51:49;;;;;;;29.52;25.50;;;11.40;83.90;;;;;;4995498;28;20058;-75
2023/04/22 10:54:27;;;;;;;27.00;23.58;;;11.50;84.00;;;;;;5005296;28;20049;-75
2023/04/22 10:57:07;;;;;;;26.42;22.50;;;11.40;83.10;;;;;;5018987;28;20454;-76
2023/04/22 10:59:42;;;;;;;25.98;21.85;;;11.50;83.00;;;;;;5007398;28;20326;-76
2023/04/22 11:02:15;;;;;;;24.38;20.77;;;11.50;82.10;;;;;;5005791;28;20365;-74
2023/04/22 11:04:42;;;;;;;24.25;20.17;;;11.50;81.80;;;;;;5004989;28;20022;-75
2023/04/22 11:07:28;;;;;;;23.75;20.33;;;11.60;81.40;;;;;;5011546;28;20018;-75
2023/04/22 11:10:14;;;;;;;22.40;19.85;;;11.60;80.40;;;;;;5015072;28;20026;-75
2023/04/22 11:12:41;;;;;;;24.27;19.65;;;11.70;80.60;;;;;;4996258;28;20466;-75
2023/04/22 11:15:09;;;;;;;21.30;18.55;;;11.80;80.30;;;;;;5001266;28;20109;-75
2023/04/22 11:17:36;;;;;;;21.58;18.65;;;11.80;79.80;;;;;;5011581;28;20030;-75
2023/04/22 11:20:06;;;;;;;21.75;18.48;;;11.80;79.20;;;;;;5007819;28;20101;-75
2023/04/22 11:22:36;;;;;;;25.38;20.52;;;11.80;79.80;;;;;;5015243;28;20096;-75
2023/04/22 11:25:03;;;;;;;20.13;16.75;;;11.80;79.70;;;;;;5013498;28;20021;-75
2023/04/22 11:27:29;;;;;;;18.88;15.48;;;11.80;77.50;;;;;;5005531;28;20034;-75
2023/04/22 11:30:04;;;;;;;19.17;15.57;;;11.90;78.80;;;;;;5017105;28;20017;-75
2023/04/22 11:32:30;;;;;;;22.80;18.40;;;11.80;76.50;;;;;;5005798;28;20038;-75
2023/04/22 11:34:56;;;;;;;24.23;19.02;;;11.70;78.50;;;;;;5006000;28;20042;-74
2023/04/22 11:37:23;;;;;;;19.70;16.25;;;11.90;78.60;;;;;;5011284;28;20037;-75
2023/04/22 11:39:50;;;;;;;18.77;15.65;;;11.80;77.10;;;;;;5012472;28;20026;-75
2023/04/22 11:42:21;;;;;;;22.42;18.42;;;11.70;76.30;;;;;;5014376;28;20040;-75
2023/04/22 11:44:47;;;;;;;21.67;17.98;;;11.70;77.60;;;;;;5003643;28;20022;-75
2023/04/22 11:47:12;;;;;;;22.10;18.92;;;11.70;78.30;;;;;;5004615;28;20371;-76
2023/04/22 11:49:38;;;;;;;21.85;18.25;;;11.70;79.30;;;;;;5008644;28;20497;-75
2023/04/22 11:52:04;;;;;;;25.08;19.52;;;11.70;79.80;;;;;;5001292;28;20366;-76
2023/04/22 11:54:35;;;;;;;22.10;17.67;;;11.70;79.20;;;;;;5008120;28;20029;-75
2023/04/22 11:57:14;;;;;;;21.67;18.60;;;11.60;78.50;;;;;;5011691;28;20379;-76
2023/04/22 11:59:40;;;;;;;21.67;18.23;;;11.60;78.80;;;;;;5003317;28;20037;-74
2023/04/22 12:02:06;;;;;;;23.45;19.38;;;11.70;79.60;;;;;;5023075;28;20482;-74
2023/04/22 12:04:39;;;;;;;23.25;19.40;;;11.80;79.60;;;;;;5014317;28;20030;-75
2023/04/22 12:07:05;;;;;;;24.13;20.40;;;12.00;79.60;;;;;;5022478;28;20497;-74
2023/04/22 12:09:32;;;;;;;23.23;20.70;;;12.10;79.30;;;;;;5024426;28;20040;-75
2023/04/22 12:11:57;;;;;;;25.60;20.92;;;12.20;79.20;;;;;;5016994;28;20033;-75
2023/04/22 12:14:36;;;;;;;24.05;20.45;;;12.20;79.50;;;;;;5014855;28;20029;-76
2023/04/22 12:17:08;;;;;;;23.80;19.33;;;12.30;79.10;;;;;;5009109;28;20033;-75
2023/04/22 12:19:33;;;;;;;21.67;17.70;;;12.50;79.00;;;;;;5011941;28;20013;-75
2023/04/22 12:21:59;;;;;;;20.42;17.33;;;12.40;78.40;;;;;;5018993;28;20030;-75
2023/04/22 12:24:29;;;;;;;20.05;17.15;;;12.50;77.90;;;;;;5013317;28;20021;-76
2023/04/22 12:26:55;;;;;;;17.65;14.75;;;12.50;78.10;;;;;;5006574;28;20065;-75
2023/04/22 12:29:31;;;;;;;18.95;15.02;;;12.60;77.40;;;;;;5004800;28;20069;-76
2023/04/22 12:31:57;;;;;;;19.30;15.60;;;12.60;76.00;;;;;;5003762;28;20048;-74